Time;durP1;ratioP1;P1;durP2;ratioP2;P2;SDS_P1;SDS_P2;PMS_P1;PMS_P2;Temp;Humidity;BMP_temperature;BMP_pressure;BME280_temperature;BME280_humidity;BME280_pressure;Samples;Min_cycle;Max_cycle;Signal;HPM_P1;HPM_P2
2022/09/13 00:01:27;;;;;;;6.60;2.92;;;;;;;15.46;66.63;96447.28;5024245;28;20054;-62
2022/09/13 00:03:54;;;;;;;4.13;2.83;;;;;;;15.96;66.68;96523.69;5023745;28;20064;-61
2022/09/13 00:06:21;;;;;;;4.03;2.80;;;;;;;15.92;66.90;96531.31;5024014;28;20118;-62
2022/09/13 00:08:49;;;;;;;3.63;3.33;;;;;;;15.94;66.28;96534.50;5022198;28;20081;-62
2022/09/13 00:11:19;;;;;;;4.38;2.85;;;;;;;15.76;66.76;96528.31;5024144;28;20049;-63
2022/09/13 00:13:46;;;;;;;4.95;2.63;;;;;;;15.57;66.84;96498.22;5023628;28;20532;-62
2022/09/13 00:16:15;;;;;;;3.03;2.72;;;;;;;15.70;67.35;96529.97;5022404;28;20085;-63
2022/09/13 00:18:42;;;;;;;2.72;2.53;;;;;;;15.67;67.00;96530.81;5024354;28;20574;-62
2022/09/13 00:21:12;;;;;;;4.63;3.17;;;;;;;15.67;68.01;96535.59;5027752;28;20637;-62
2022/09/13 00:23:42;;;;;;;7.55;3.83;;;;;;;15.59;68.88;96532.09;5027660;28;20057;-62
2022/09/13 00:26:20;;;;;;;5.30;3.33;;;;;;;15.28;69.25;96496.13;5027722;28;20144;-62
2022/09/13 00:28:51;;;;;;;3.10;2.70;;;;;;;15.07;69.88;96491.53;5027574;28;20088;-63
2022/09/13 00:31:18;;;;;;;3.97;3.38;;;;;;;15.36;70.67;96540.28;5026348;28;20057;-63
2022/09/13 00:33:45;;;;;;;4.10;2.97;;;;;;;15.29;69.97;96537.56;5007236;28;20591;-62
2022/09/13 00:36:14;;;;;;;8.23;4.10;;;;;;;15.36;69.92;96534.72;5006206;28;20085;-62
2022/09/13 00:38:42;;;;;;;5.47;3.40;;;;;;;15.34;71.03;96534.31;5007273;28;20136;-62
2022/09/13 00:41:17;;;;;;;4.50;3.47;;;;;;;14.85;70.84;96506.88;5007182;28;20579;-62
2022/09/13 00:43:56;;;;;;;3.47;3.17;;;;;;;15.23;70.93;96530.84;5007321;28;20381;-63
2022/09/13 00:46:38;;;;;;;4.68;2.80;;;;;;;15.12;71.29;96516.19;5007579;28;20053;-63
2022/09/13 00:49:21;;;;;;;4.60;2.78;;;;;;;14.69;72.69;96470.34;5007043;28;20085;-63
2022/09/13 00:51:57;;;;;;;3.95;3.00;;;;;;;15.08;72.93;96532.97;5005972;28;20156;-63
2022/09/13 00:54:29;;;;;;;3.35;2.92;;;;;;;14.95;73.51;96531.09;5005431;28;20108;-63
2022/09/13 00:57:01;;;;;;;3.30;2.95;;;;;;;14.50;72.76;96468.13;5005466;28;20653;-62
2022/09/13 00:59:32;;;;;;;3.17;2.78;;;;;;;14.64;72.82;96491.09;5006824;28;20156;-62
2022/09/13 01:02:00;;;;;;;5.20;2.53;;;;;;;14.92;72.75;96529.91;5005437;28;20138;-63
2022/09/13 01:04:31;;;;;;;3.97;2.85;;;;;;;14.83;73.57;96531.56;5005402;28;20064;-62
2022/09/13 01:07:01;;;;;;;3.97;3.35;;;;;;;14.62;72.98;96501.09;5006972;28;20163;-63
2022/09/13 01:09:31;;;;;;;3.60;3.22;;;;;;;14.28;73.39;96456.34;5004865;28;20507;-63
2022/09/13 01:12:24;;;;;;;4.57;3.05;;;;;;;14.77;73.22;96534.03;5007073;28;20565;-62
2022/09/13 01:14:52;;;;;;;3.28;2.72;;;;;;;14.35;72.77;96472.22;5006714;28;20096;-63
2022/09/13 01:17:18;;;;;;;3.53;2.75;;;;;;;14.75;73.84;96530.03;5006499;28;20069;-62
2022/09/13 01:19:45;;;;;;;3.58;3.10;;;;;;;13.18;72.67;96287.59;5005136;28;20089;-63
2022/09/13 01:22:12;;;;;;;4.13;3.50;;;;;;;14.65;73.58;96530.94;5006618;28;20054;-62
2022/09/13 01:25:07;;;;;;;3.25;2.95;;;;;;;14.63;73.34;96527.75;5004901;28;20129;-62
2022/09/13 01:28:08;;;;;;;5.13;3.60;;;;;;;14.62;72.36;96528.97;4989982;28;20846;-64
2022/09/13 01:30:42;;;;;;;7.03;3.60;;;;;;;13.96;76.95;96530.88;5005054;28;20423;-62
2022/09/13 01:33:38;;;;;;;7.90;3.97;;;;;;;13.54;79.11;96512.38;5021656;28;20046;-63
2022/09/13 01:36:27;;;;;;;9.57;4.32;;;;;;;13.70;78.74;96537.75;5025980;28;20061;-64
2022/09/13 01:39:01;;;;;;;8.48;5.15;;;;;;;13.50;79.52;96506.00;5026158;28;20151;-63
2022/09/13 01:41:47;;;;;;;13.82;4.97;;;;;;;13.75;79.69;96532.97;5026158;28;20080;-62
2022/09/13 01:44:21;;;;;;;10.63;5.50;;;;;;;13.22;79.13;96431.00;5024035;28;20084;-64
2022/09/13 01:47:09;;;;;;;12.23;4.70;;;;;;;13.84;79.00;96536.13;5026148;28;20053;-62
2022/09/13 01:49:39;;;;;;;5.47;4.43;;;;;;;13.85;80.72;96537.72;5025565;28;20500;-62
2022/09/13 01:52:11;;;;;;;5.93;3.35;;;;;;;13.91;79.39;96541.66;5025752;28;20059;-62
2022/09/13 01:55:05;;;;;;;11.65;4.95;;;;;;;13.53;79.39;96533.03;5025701;28;20136;-63
2022/09/13 01:57:37;;;;;;;6.80;3.72;;;;;;;13.26;81.95;96534.69;5025274;28;20065;-62
2022/09/13 02:00:13;;;;;;;6.28;3.90;;;;;;;13.04;81.29;96483.06;5025318;28;20107;-64
2022/09/13 02:03:39;;;;;;;10.90;3.58;;;;;;;13.36;81.77;96530.28;5025572;28;20088;-63
2022/09/13 02:06:31;;;;;;;5.00;3.50;;;;;;;13.32;82.56;96530.31;4983435;28;20552;-63
2022/09/13 02:09:08;;;;;;;3.65;3.03;;;;;;;13.14;83.76;96498.97;4982947;28;20144;-64
2022/09/13 02:11:39;;;;;;;4.07;3.03;;;;;;;13.43;82.32;96528.31;5019572;28;20116;-63
2022/09/13 02:14:10;;;;;;;4.15;3.20;;;;;;;13.49;80.50;96531.47;5025737;28;20127;-63
2022/09/13 02:16:42;;;;;;;6.05;3.58;;;;;;;13.41;81.28;96533.47;5025173;28;20148;-63
2022/09/13 02:19:24;;;;;;;3.88;3.42;;;;;;;13.35;82.83;96537.88;5024089;28;20083;-62
2022/09/13 02:21:56;;;;;;;5.28;3.42;;;;;;;13.46;82.37;96538.63;5025370;28;20216;-62
2022/09/13 02:24:36;;;;;;;7.07;3.55;;;;;;;12.57;84.88;96536.28;5023802;28;20140;-62
2022/09/13 02:27:08;;;;;;;6.63;3.70;;;;;;;12.82;84.79;96542.63;5024068;28;20077;-62
2022/09/13 02:29:38;;;;;;;4.80;3.60;;;;;;;12.95;86.32;96543.81;5024889;28;20744;-62
2022/09/13 02:32:15;;;;;;;4.60;3.80;;;;;;;13.07;86.27;96543.44;5018460;28;20042;-62
2022/09/13 02:34:51;;;;;;;7.05;3.90;;;;;;;13.22;84.83;96533.91;5005556;28;20092;-62
2022/09/13 02:37:18;;;;;;;4.40;3.58;;;;;;;13.18;81.88;96516.41;5005335;28;20595;-62
2022/09/13 02:40:01;;;;;;;7.75;4.53;;;;;;;13.24;81.46;96531.53;5005205;28;20129;-64
2022/09/13 02:42:42;;;;;;;11.68;5.57;;;;;;;13.22;82.15;96533.09;5003809;28;20115;-62
2022/09/13 02:45:12;;;;;;;7.40;4.10;;;;;;;13.28;81.98;96537.06;5005188;28;20147;-63
2022/09/13 02:48:02;;;;;;;4.53;3.83;;;;;;;13.37;82.11;96527.09;5005610;28;20429;-63
2022/09/13 02:51:06;;;;;;;6.65;4.60;;;;;;;13.43;81.11;96539.44;5005468;28;20428;-64
2022/09/13 02:53:54;;;;;;;4.45;4.05;;;;;;;13.25;80.10;96521.16;5003027;28;20488;-63
2022/09/13 02:56:48;;;;;;;4.07;3.50;;;;;;;13.22;82.00;96533.91;5004991;28;20140;-62
2022/09/13 02:59:19;;;;;;;5.18;3.85;;;;;;;12.98;80.62;96481.88;5005280;28;20050;-63
2022/09/13 03:02:13;;;;;;;5.07;3.20;;;;;;;13.25;81.60;96535.88;5005363;28;20049;-62
2022/09/13 03:04:39;;;;;;;;;;;;;;;13.20;82.59;96536.28;5005854;28;20054;-62
2022/09/13 03:07:10;;;;;;;4.25;3.00;;;;;;;13.08;83.04;96545.03;5003891;28;20033;-62
2022/09/13 03:09:45;;;;;;;3.53;2.97;;;;;;;13.06;83.03;96541.88;5004543;28;20156;-62
2022/09/13 03:12:33;;;;;;;5.07;3.40;;;;;;;13.11;82.95;96549.81;5004657;28;20136;-62
2022/09/13 03:15:19;;;;;;;6.97;3.30;;;;;;;12.66;83.77;96545.00;5004843;28;20057;-63
2022/09/13 03:18:05;;;;;;;5.53;3.35;;;;;;;12.67;85.09;96538.28;5004935;28;20054;-62
2022/09/13 03:20:37;;;;;;;6.57;3.35;;;;;;;12.58;86.31;96549.00;5004877;28;20564;-62
2022/09/13 03:23:23;;;;;;;4.10;3.47;;;;;;;12.50;86.76;96541.84;5004841;28;20128;-63
2022/09/13 03:26:18;;;;;;;6.03;2.88;;;;;;;12.57;85.40;96547.38;5002994;28;20089;-63
2022/09/13 03:29:00;;;;;;;5.57;3.63;;;;;;;12.44;85.43;96554.50;5003263;28;20501;-63
2022/09/13 03:31:56;;;;;;;4.00;3.00;;;;;;;12.07;86.57;96506.81;5005345;28;20053;-65
2022/09/13 03:34:55;;;;;;;4.57;3.72;;;;;;;12.45;86.02;96556.09;5014194;28;20183;-63
2022/09/13 03:37:25;;;;;;;7.63;3.35;;;;;;;12.15;87.42;96563.97;5023074;28;20492;-62
2022/09/13 03:40:17;;;;;;;7.82;4.55;;;;;;;11.89;90.77;96567.03;5023895;28;20145;-62
2022/09/13 03:42:52;;;;;;;8.18;5.13;;;;;;;11.69;90.81;96507.50;5023161;28;20085;-63
2022/09/13 03:45:25;;;;;;;5.70;3.97;;;;;;;11.72;91.71;96506.72;5024154;28;20053;-63
2022/09/13 03:47:53;;;;;;;8.20;3.50;;;;;;;11.70;90.39;96506.28;5024374;28;20060;-63
2022/09/13 03:50:23;;;;;;;7.60;3.55;;;;;;;12.16;89.57;96554.44;5022410;28;20176;-62
2022/09/13 03:52:55;;;;;;;5.45;3.78;;;;;;;12.10;89.36;96529.06;5024719;28;20112;-65
2022/09/13 03:55:22;;;;;;;10.15;5.80;;;;;;;12.17;89.16;96554.03;5027517;28;20580;-62
2022/09/13 03:57:49;;;;;;;6.45;3.70;;;;;;;12.10;88.89;96550.47;5027997;28;20085;-63
2022/09/13 04:00:17;;;;;;;7.32;3.90;;;;;;;12.24;88.49;96547.72;5027758;28;20084;-62
2022/09/13 04:02:44;;;;;;;3.75;2.97;;;;;;;11.92;86.84;96503.22;5026503;28;20184;-62
2022/09/13 04:05:10;;;;;;;3.45;2.95;;;;;;;12.38;86.93;96556.06;5027850;28;20150;-62
2022/09/13 04:07:37;;;;;;;4.72;3.35;;;;;;;12.39;85.52;96560.47;5027529;28;20155;-62
2022/09/13 04:10:04;;;;;;;5.38;4.10;;;;;;;12.38;85.91;96552.53;5027817;28;20119;-63
2022/09/13 04:12:31;;;;;;;4.60;3.85;;;;;;;11.82;86.27;96503.19;5027802;28;20133;-65
2022/09/13 04:14:58;;;;;;;6.55;3.47;;;;;;;12.42;85.84;96565.22;5026098;28;20135;-62
2022/09/13 04:17:24;;;;;;;4.70;3.92;;;;;;;12.46;86.20;96560.47;5025963;28;20054;-63
2022/09/13 04:19:51;;;;;;;6.10;4.68;;;;;;;12.28;86.24;96506.06;5027516;28;20085;-62
2022/09/13 04:22:18;;;;;;;8.52;4.43;;;;;;;12.30;83.29;96507.25;5026243;28;20150;-62
2022/09/13 04:24:45;;;;;;;8.10;5.25;;;;;;;12.71;83.30;96564.06;5027241;28;20576;-62
2022/09/13 04:27:12;;;;;;;6.95;4.75;;;;;;;12.76;83.16;96560.91;5025807;28;20088;-62
2022/09/13 04:29:38;;;;;;;5.78;3.75;;;;;;;12.35;84.43;96526.31;5027090;28;20517;-64
2022/09/13 04:32:05;;;;;;;4.70;3.80;;;;;;;9.80;88.34;96253.13;5019699;28;20136;-63
2022/09/13 04:34:32;;;;;;;9.00;5.00;;;;;;;11.77;91.64;96576.50;5007501;28;20058;-63
2022/09/13 04:36:58;;;;;;;7.75;5.07;;;;;;;12.10;90.03;96567.13;5005731;28;20101;-63
2022/09/13 04:39:25;;;;;;;10.00;4.60;;;;;;;11.93;89.33;96529.78;5007342;28;20124;-62
2022/09/13 04:41:53;;;;;;;7.80;5.85;;;;;;;11.91;88.60;96486.94;5005473;28;20050;-63
2022/09/13 04:44:22;;;;;;;7.65;4.65;;;;;;;10.99;87.62;96299.25;5007265;28;20053;-61
2022/09/13 04:46:49;;;;;;;14.02;5.97;;;;;;;12.61;86.28;96542.63;5007025;28;20469;-62
2022/09/13 04:49:18;;;;;;;9.90;4.22;;;;;;;12.47;85.77;96548.16;5005643;28;20527;-62
2022/09/13 04:51:45;;;;;;;7.57;4.68;;;;;;;12.60;85.36;96534.69;5005467;28;20517;-62
2022/09/13 04:54:13;;;;;;;6.03;3.83;;;;;;;13.14;83.14;96571.25;5005913;28;20096;-64
2022/09/13 04:56:46;;;;;;;6.28;3.35;;;;;;;13.30;81.81;96580.00;5005215;28;20061;-62
2022/09/13 04:59:13;;;;;;;4.40;2.85;;;;;;;11.97;80.70;96347.41;5005163;28;20507;-62
2022/09/13 05:01:40;;;;;;;7.25;3.58;;;;;;;13.61;80.57;96581.91;5006839;28;20056;-63
2022/09/13 05:04:08;;;;;;;6.05;3.15;;;;;;;13.48;80.55;96561.25;5006686;28;20050;-63
2022/09/13 05:06:35;;;;;;;8.30;3.90;;;;;;;13.80;79.39;96597.38;5006550;28;20521;-62
2022/09/13 05:09:02;;;;;;;9.98;4.22;;;;;;;13.94;78.81;96596.53;5006674;28;20058;-63
2022/09/13 05:11:30;;;;;;;4.25;3.38;;;;;;;13.94;79.40;96613.25;5006655;28;20093;-65
2022/09/13 05:13:58;;;;;;;10.23;4.68;;;;;;;13.94;80.07;96602.13;5006607;28;20144;-62
2022/09/13 05:16:28;;;;;;;8.13;3.50;;;;;;;13.91;80.43;96611.28;5006388;28;20591;-62
2022/09/13 05:18:55;;;;;;;13.30;4.07;;;;;;;13.92;81.30;96598.94;5006346;28;20588;-63
2022/09/13 05:21:23;;;;;;;7.57;4.22;;;;;;;14.02;80.71;96601.66;5006257;28;20112;-62
2022/09/13 05:23:51;;;;;;;9.10;3.97;;;;;;;14.16;80.51;96603.63;5006568;28;20093;-61
2022/09/13 05:26:18;;;;;;;4.80;3.55;;;;;;;14.16;79.84;96598.06;5005950;28;20049;-62
2022/09/13 05:28:45;;;;;;;5.75;3.53;;;;;;;13.97;78.54;96557.56;5006492;28;20136;-62
2022/09/13 05:31:17;;;;;;;4.50;3.47;;;;;;;14.49;77.84;96597.53;5004458;28;20532;-63
2022/09/13 05:33:47;;;;;;;6.05;3.30;;;;;;;14.49;75.31;96575.22;5023671;28;20064;-62
2022/09/13 05:36:14;;;;;;;9.73;4.00;;;;;;;11.76;75.46;96113.56;4999668;28;20686;-61
2022/09/13 05:38:40;;;;;;;4.35;3.17;;;;;;;15.03;75.44;96599.56;5006497;28;20084;-62
2022/09/13 05:41:07;;;;;;;9.88;3.80;;;;;;;14.56;74.21;96477.63;5007005;28;20071;-66
2022/09/13 05:43:35;;;;;;;9.75;4.90;;;;;;;15.52;72.63;96596.41;5015002;28;20127;-64
2022/09/13 05:46:04;;;;;;;7.05;3.63;;;;;;;15.76;71.22;96600.91;5005504;28;20050;-60
2022/09/13 05:48:32;;;;;;;7.55;3.47;;;;;;;15.93;69.97;96599.16;5005942;28;20042;-62
2022/09/13 05:51:05;;;;;;;5.32;2.60;;;;;;;16.25;65.96;96600.38;5005765;28;20104;-61
2022/09/13 05:53:33;;;;;;;4.28;2.70;;;;;;;16.00;65.92;96569.13;5008711;28;20045;-61
2022/09/13 05:56:00;;;;;;;4.65;2.90;;;;;;;16.02;66.34;96541.56;5022187;28;20096;-62
2022/09/13 05:58:27;;;;;;;4.60;3.20;;;;;;;16.59;65.46;96603.97;5005795;28;20141;-62
2022/09/13 06:00:55;;;;;;;6.97;3.10;;;;;;;16.74;64.76;96607.31;5004752;28;20654;-65
2022/09/13 06:03:22;;;;;;;8.80;4.03;;;;;;;16.34;64.05;96504.81;5004368;28;20095;-68
2022/09/13 06:05:57;;;;;;;5.97;3.25;;;;;;;16.42;66.13;96548.25;5004871;28;20166;-67
2022/09/13 06:08:32;;;;;;;6.57;3.65;;;;;;;16.32;70.57;96538.00;5004807;28;20054;-64
2022/09/13 06:11:01;;;;;;;4.97;3.70;;;;;;;17.06;69.84;96604.06;5004318;28;20057;-64
2022/09/13 06:13:29;;;;;;;4.15;3.22;;;;;;;16.78;68.95;96520.56;5003792;28;20119;-59
2022/09/13 06:15:58;;;;;;;3.25;2.85;;;;;;;17.66;67.98;96603.91;5004594;28;20437;-60
2022/09/13 06:18:26;;;;;;;4.72;3.50;;;;;;;17.45;62.75;96542.69;5004128;28;20101;-64
2022/09/13 06:21:06;;;;;;;5.05;2.95;;;;;;;17.37;61.39;96485.19;5005260;28;20089;-63
2022/09/13 06:23:33;;;;;;;5.40;3.00;;;;;;;18.09;61.27;96574.66;5000651;28;20143;-61
2022/09/13 06:26:04;;;;;;;4.20;2.55;;;;;;;18.52;61.00;96608.25;4983781;28;20146;-63
2022/09/13 06:28:31;;;;;;;3.72;2.58;;;;;;;18.18;59.01;96529.22;4995414;28;20049;-67
2022/09/13 06:31:08;;;;;;;7.05;2.50;;;;;;;18.90;58.73;96603.81;5005106;28;20081;-62
2022/09/13 06:33:37;;;;;;;2.90;2.70;;;;;;;18.19;57.63;96474.75;5020249;28;20061;-67
2022/09/13 06:36:09;;;;;;;6.07;2.53;;;;;;;19.34;55.83;96600.41;5004975;28;20497;-69
2022/09/13 06:38:37;;;;;;;3.00;2.60;;;;;;;19.55;54.22;96599.84;5004921;28;20488;-67
2022/09/13 06:41:11;;;;;;;3.80;2.38;;;;;;;19.77;53.01;96607.75;5004109;28;20128;-62
2022/09/13 06:43:39;;;;;;;3.53;2.20;;;;;;;19.74;52.07;96583.34;5000220;28;20058;-66
2022/09/13 06:46:11;;;;;;;2.58;1.80;;;;;;;19.84;49.58;96583.03;4997343;28;20442;-67
2022/09/13 06:48:40;;;;;;;2.60;1.90;;;;;;;20.14;49.39;96619.22;4985554;28;20050;-61
2022/09/13 06:51:13;;;;;;;3.33;2.05;;;;;;;19.75;46.38;96523.06;4985508;28;20053;-69
2022/09/13 06:53:41;;;;;;;2.20;2.00;;;;;;;19.60;47.76;96530.31;4983880;28;20490;-66
2022/09/13 06:56:11;;;;;;;3.03;1.92;;;;;;;19.91;45.81;96517.41;5000166;28;20063;-61
2022/09/13 06:58:40;;;;;;;3.17;1.95;;;;;;;20.08;45.47;96518.94;5004186;28;20054;-67
2022/09/13 07:01:10;;;;;;;2.10;1.90;;;;;;;20.83;44.66;96620.47;5004316;28;20054;-61
2022/09/13 07:03:39;;;;;;;1.98;1.85;;;;;;;20.62;44.21;96615.44;5003315;28;20141;-68
2022/09/13 07:06:12;;;;;;;2.28;2.00;;;;;;;20.85;44.73;96623.59;5000022;28;20105;-63
2022/09/13 07:08:39;;;;;;;2.72;2.03;;;;;;;20.89;44.59;96579.25;5002577;28;20474;-64
2022/09/13 07:11:08;;;;;;;2.22;2.03;;;;;;;20.29;44.05;96462.88;5004299;28;20180;-63
2022/09/13 07:13:35;;;;;;;3.70;2.63;;;;;;;20.70;43.56;96521.13;5002537;28;20089;-65
2022/09/13 07:16:04;;;;;;;2.00;1.80;;;;;;;21.43;42.82;96644.78;5003085;28;20058;-63
2022/09/13 07:18:31;;;;;;;2.53;2.30;;;;;;;21.35;42.32;96680.06;5003583;28;20509;-62
2022/09/13 07:21:09;;;;;;;2.78;1.88;;;;;;;20.92;41.10;96555.81;5004522;28;20500;-60
2022/09/13 07:23:38;;;;;;;3.33;2.10;;;;;;;21.11;41.75;96556.84;5004068;28;20140;-63
2022/09/13 07:26:06;;;;;;;2.00;1.90;;;;;;;21.68;42.09;96619.38;5003615;28;20050;-61
2022/09/13 07:28:38;;;;;;;2.33;2.20;;;;;;;21.36;42.49;96585.81;5005466;28;20077;-64
2022/09/13 07:31:11;;;;;;;1.83;1.73;;;;;;;21.85;42.08;96639.78;5008067;28;20054;-65
2022/09/13 07:33:40;;;;;;;3.38;2.42;;;;;;;21.82;40.78;96595.56;5006654;28;20129;-65
2022/09/13 07:36:07;;;;;;;2.90;2.10;;;;;;;21.17;42.05;96505.13;5008007;28;20448;-65
2022/09/13 07:38:35;;;;;;;2.33;1.70;;;;;;;21.85;41.04;96584.19;5006013;28;20129;-66
2022/09/13 07:41:05;;;;;;;1.75;1.65;;;;;;;22.38;40.22;96628.22;5006502;28;20143;-63
2022/09/13 07:43:33;;;;;;;2.55;2.28;;;;;;;21.82;40.75;96508.94;5005781;28;20058;-63
2022/09/13 07:46:04;;;;;;;2.35;1.88;;;;;;;22.80;39.26;96613.81;5006775;28;20156;-68
2022/09/13 07:48:33;;;;;;;2.10;2.00;;;;;;;22.99;39.58;96629.63;5022906;28;20050;-63
2022/09/13 07:51:05;;;;;;;2.20;1.98;;;;;;;22.70;39.92;96561.38;5005938;28;20054;-67
2022/09/13 07:53:33;;;;;;;1.90;1.80;;;;;;;23.27;39.71;96620.06;4987327;28;20070;-66
2022/09/13 07:56:04;;;;;;;2.15;2.05;;;;;;;23.52;39.48;96619.88;4986837;28;20058;-69
2022/09/13 07:58:32;;;;;;;2.47;2.28;;;;;;;23.00;39.81;96594.50;4991061;28;20292;-63
2022/09/13 08:01:10;;;;;;;8.30;3.33;;;;;;;22.73;40.19;96614.09;5007469;28;20108;-66
2022/09/13 08:03:37;;;;;;;1.75;1.65;;;;;;;22.26;40.38;96518.22;5005316;28;20077;-62
2022/09/13 08:06:05;;;;;;;11.45;3.15;;;;;;;22.08;39.87;96473.72;5005464;28;20054;-66
2022/09/13 08:08:33;;;;;;;8.48;2.72;;;;;;;22.32;41.29;96613.13;5008258;28;20124;-69
2022/09/13 08:11:01;;;;;;;2.70;2.50;;;;;;;21.89;41.31;96522.00;5000715;28;20503;-67
2022/09/13 08:13:29;;;;;;;4.75;2.80;;;;;;;22.86;40.09;96612.00;5005058;28;20171;-64
2022/09/13 08:15:55;;;;;;;3.80;2.50;;;;;;;23.00;40.86;96617.09;5004702;28;20171;-62
2022/09/13 08:18:22;;;;;;;2.67;2.45;;;;;;;23.10;39.92;96618.72;5005482;28;20054;-61
2022/09/13 08:20:48;;;;;;;2.78;2.40;;;;;;;22.28;39.18;96490.34;5007268;28;20857;-62
2022/09/13 08:23:16;;;;;;;5.07;2.03;;;;;;;22.72;40.40;96606.84;5007007;28;20144;-64
2022/09/13 08:25:42;;;;;;;3.20;2.55;;;;;;;23.13;39.42;96631.91;5006841;28;20065;-66
2022/09/13 08:28:14;;;;;;;2.45;2.00;;;;;;;22.34;38.81;96508.25;5007345;28;20053;-64
2022/09/13 08:30:42;;;;;;;2.88;2.08;;;;;;;23.14;38.04;96633.50;4998535;28;20140;-67
2022/09/13 08:33:10;;;;;;;2.28;2.03;;;;;;;22.83;38.70;96587.47;5018761;28;20062;-68
2022/09/13 08:35:37;;;;;;;2.10;1.83;;;;;;;23.37;38.57;96630.97;5005842;28;20145;-72
2022/09/13 08:38:05;;;;;;;2.30;2.20;;;;;;;23.55;38.55;96627.44;5004315;28;20152;-60
2022/09/13 08:40:40;;;;;;;1.80;1.70;;;;;;;23.94;37.53;96618.13;5005467;28;20497;-62
2022/09/13 08:43:29;;;;;;;2.78;2.55;;;;;;;24.43;37.44;96613.16;5006091;28;20096;-69
2022/09/13 08:46:01;;;;;;;3.05;2.40;;;;;;;25.02;36.37;96606.81;5004558;28;20455;-65
2022/09/13 08:48:39;;;;;;;2.55;2.20;;;;;;;25.52;34.83;96612.97;5005609;28;20054;-65
2022/09/13 08:51:22;;;;;;;2.40;2.20;;;;;;;25.01;34.43;96548.56;5004720;28;20475;-61
2022/09/13 08:53:50;;;;;;;3.72;2.90;;;;;;;24.33;35.08;96633.47;5004618;28;20132;-73
2022/09/13 08:56:52;;;;;;;21.00;11.35;;;;;;;24.08;34.39;96623.19;4997054;28;20141;-62
2022/09/13 08:59:35;;;;;;;3.80;2.78;;;;;;;24.04;34.91;96622.56;5003915;28;20096;-65
2022/09/13 09:02:21;;;;;;;5.28;1.92;;;;;;;22.75;35.67;96518.38;5004865;28;20136;-61
2022/09/13 09:05:03;;;;;;;14.80;7.22;;;;;;;23.67;36.30;96620.88;5005380;28;20054;-60
2022/09/13 09:07:41;;;;;;;2.55;2.35;;;;;;;23.53;36.75;96591.16;5005025;28;20139;-60
2022/09/13 09:10:22;;;;;;;2.53;2.33;;;;;;;23.77;36.33;96619.66;5004653;28;20432;-61
2022/09/13 09:12:54;;;;;;;5.50;3.78;;;;;;;23.36;38.14;96622.97;5004465;28;20077;-62
2022/09/13 09:15:25;;;;;;;5.95;2.85;;;;;;;23.34;38.60;96631.91;5004546;28;20631;-61
2022/09/13 09:17:52;;;;;;;3.22;2.75;;;;;;;23.35;39.53;96627.03;5004234;28;20077;-63
2022/09/13 09:20:18;;;;;;;3.10;2.30;;;;;;;23.19;40.65;96630.06;5004627;28;20133;-62
2022/09/13 09:22:47;;;;;;;4.40;2.60;;;;;;;23.12;40.63;96630.34;5003371;28;20081;-62
2022/09/13 09:25:14;;;;;;;3.72;2.70;;;;;;;22.95;40.69;96626.16;5004211;28;20484;-61
2022/09/13 09:27:41;;;;;;;24.65;4.65;;;;;;;22.79;40.77;96613.06;5003010;28;20077;-62
2022/09/13 09:30:14;;;;;;;2.80;2.17;;;;;;;22.68;41.18;96632.44;5005577;28;20121;-64
2022/09/13 09:32:49;;;;;;;4.55;2.35;;;;;;;22.57;41.56;96614.28;5000110;28;20144;-64
2022/09/13 09:35:51;;;;;;;5.18;2.75;;;;;;;22.51;41.89;96618.94;4989925;28;20115;-62
2022/09/13 09:38:41;;;;;;;4.38;2.20;;;;;;;22.49;40.74;96617.34;4944779;28;20062;-67
2022/09/13 09:41:33;;;;;;;2.75;2.08;;;;;;;22.79;40.35;96598.13;4984463;28;20050;-63
2022/09/13 09:44:32;;;;;;;2.95;2.33;;;;;;;22.81;40.52;96604.13;4990350;28;20046;-68
2022/09/13 09:47:09;;;;;;;5.75;2.72;;;;;;;23.07;40.63;96599.84;4986057;28;20054;-60
2022/09/13 09:52:33;;;;;;;2.25;2.15;;;;;;;23.25;38.79;96499.00;5003377;28;20085;-60
2022/09/13 09:55:25;;;;;;;2.83;2.20;;;;;;;24.41;38.01;96595.84;4990852;28;20437;-61
2022/09/13 09:58:05;;;;;;;2.40;2.10;;;;;;;24.60;36.10;96591.75;5003191;28;20054;-61
2022/09/13 10:00:38;;;;;;;4.05;2.70;;;;;;;24.89;36.70;96588.44;4992973;28;20610;-61
2022/09/13 10:03:15;;;;;;;2.30;2.20;;;;;;;24.70;35.40;96528.19;5005350;28;20153;-62
2022/09/13 10:05:42;;;;;;;2.28;2.17;;;;;;;25.39;34.85;96584.06;4999470;28;20137;-63
2022/09/13 10:08:29;;;;;;;4.07;2.67;;;;;;;24.86;35.71;96581.69;5000538;28;20078;-61
2022/09/13 10:11:00;;;;;;;2.38;2.28;;;;;;;24.06;36.07;96453.06;4992679;28;20488;-61
2022/09/13 10:13:35;;;;;;;2.90;2.58;;;;;;;25.10;35.59;96573.28;5121636;27;20124;-66
2022/09/13 10:16:06;;;;;;;3.42;2.47;;;;;;;25.35;35.13;96572.09;5106081;28;20056;-62
2022/09/13 10:18:35;;;;;;;2.47;2.28;;;;;;;25.30;33.91;96577.13;5101590;28;20047;-64
2022/09/13 10:21:16;;;;;;;2.47;2.38;;;;;;;25.36;34.18;96562.31;5102536;28;20165;-65
2022/09/13 10:23:46;;;;;;;2.67;2.47;;;;;;;23.82;34.21;96344.63;5118380;28;20047;-62
2022/09/13 10:26:14;;;;;;;2.85;2.65;;;;;;;25.44;34.49;96557.88;5113556;28;20809;-63
2022/09/13 10:28:53;;;;;;;5.20;2.60;;;;;;;25.85;33.65;96565.50;5108004;28;20073;-64
2022/09/13 10:31:26;;;;;;;2.88;2.67;;;;;;;25.92;33.55;96531.09;5122118;27;20139;-65
2022/09/13 10:34:00;;;;;;;2.45;2.25;;;;;;;24.74;32.80;96316.31;5102461;28;20113;-68
2022/09/13 10:36:35;;;;;;;5.97;2.88;;;;;;;25.93;32.81;96476.69;5101129;28;20069;-66
2022/09/13 10:39:21;;;;;;;3.28;2.97;;;;;;;26.37;31.84;96557.13;5081258;28;20048;-62
2022/09/13 10:41:54;;;;;;;2.75;2.30;;;;;;;26.26;31.60;96553.25;5082089;28;20515;-64
2022/09/13 10:44:39;;;;;;;2.15;2.05;;;;;;;25.85;31.95;96545.66;5121997;28;20108;-62
2022/09/13 10:47:12;;;;;;;3.70;2.47;;;;;;;25.34;32.15;96548.63;5102401;28;20071;-63
2022/09/13 10:49:48;;;;;;;2.78;2.58;;;;;;;25.24;32.49;96539.31;5101178;28;20101;-62
2022/09/13 10:52:34;;;;;;;3.78;2.42;;;;;;;25.93;31.21;96544.00;5114997;28;20051;-64
2022/09/13 10:55:30;;;;;;;2.50;2.40;;;;;;;26.77;30.60;96539.56;5103131;28;20064;-62
2022/09/13 10:58:06;;;;;;;2.47;2.28;;;;;;;27.02;30.49;96533.28;5105254;28;20079;-69
2022/09/13 11:00:41;;;;;;;2.50;2.30;;;;;;;26.62;30.18;96535.88;5100741;28;20071;-66
2022/09/13 11:03:11;;;;;;;2.58;2.38;;;;;;;26.28;30.65;96534.47;5121071;28;20087;-60
2022/09/13 11:05:49;;;;;;;2.17;2.05;;;;;;;25.65;32.06;96534.13;5120894;28;20112;-63
2022/09/13 11:08:31;;;;;;;3.50;3.00;;;;;;;25.57;33.15;96525.19;5120948;28;20112;-64
2022/09/13 11:11:15;;;;;;;2.80;2.60;;;;;;;25.22;32.37;96399.31;5118479;28;20051;-64
2022/09/13 11:13:47;;;;;;;;;;;;;;;26.09;31.05;96533.06;5100238;28;20134;-65
2022/09/13 11:16:17;;;;;;;2.20;2.10;;;;;;;26.05;31.00;96534.50;5109755;28;19923;-66
2022/09/13 11:18:50;;;;;;;2.13;2.03;;;;;;;25.90;31.22;96527.97;5107774;28;20490;-67
2022/09/13 11:21:17;;;;;;;;;;;;;;;25.92;31.54;96534.75;5104480;28;20079;-63
2022/09/13 11:23:57;;;;;;;3.45;3.15;;;;;;;24.63;32.08;96426.50;5094001;28;20382;-66
2022/09/13 11:27:04;;;;;;;2.70;2.50;;;;;;;25.38;31.97;96509.53;5098191;28;20136;-67
2022/09/13 11:29:50;;;;;;;2.50;2.30;;;;;;;25.15;33.72;96530.88;5065505;28;20056;-61
2022/09/13 11:32:25;;;;;;;5.95;3.40;;;;;;;24.95;34.84;96533.47;5040697;28;20156;-68
2022/09/13 11:35:16;;;;;;;2.90;2.70;;;;;;;25.20;33.67;96537.94;5025154;28;20140;-68
2022/09/13 11:38:13;;;;;;;3.83;3.08;;;;;;;25.19;34.12;96540.00;5026619;28;20149;-67
2022/09/13 11:41:22;;;;;;;4.47;2.90;;;;;;;24.31;34.35;96461.19;5024524;28;20045;-69
2022/09/13 11:43:50;;;;;;;5.57;3.85;;;;;;;25.00;34.71;96546.22;5027745;28;20080;-63
2022/09/13 11:46:38;;;;;;;3.67;2.88;;;;;;;25.43;33.91;96536.44;5056242;28;20053;-63
2022/09/13 11:49:48;;;;;;;2.28;2.08;;;;;;;24.93;33.78;96464.34;5064575;28;20118;-65
2022/09/13 11:52:47;;;;;;;3.03;2.67;;;;;;;25.15;33.98;96536.53;5064102;28;20522;-65
2022/09/13 11:55:25;;;;;;;2.83;2.55;;;;;;;24.61;34.34;96542.31;5060468;28;20474;-63
2022/09/13 11:57:55;;;;;;;2.97;2.78;;;;;;;24.37;34.77;96501.81;5044411;28;20142;-65
2022/09/13 12:00:31;;;;;;;2.55;2.35;;;;;;;25.15;34.13;96536.53;5059408;28;20053;-66
2022/09/13 12:03:10;;;;;;;2.67;2.25;;;;;;;25.60;33.27;96531.94;5065927;28;20574;-64
2022/09/13 12:05:44;;;;;;;2.63;2.42;;;;;;;25.83;33.12;96529.09;5065927;28;20383;-64
2022/09/13 12:08:21;;;;;;;2.28;2.08;;;;;;;26.28;32.74;96530.84;5065729;28;20538;-61
2022/09/13 12:10:57;;;;;;;4.00;3.60;;;;;;;26.92;32.74;96520.44;5063598;28;20044;-67